sensor_id;sensor_type;location;lat;lon;timestamp;P1;P2;P0
72509;PMS5003;60532;56.114;40.350;2024-03-08T00:00:50;5.33;5.00;2.00
72509;PMS5003;60532;56.114;40.350;2024-03-08T00:02:52;5.00;4.00;1.00
72509;PMS5003;60532;56.114;40.350;2024-03-08T00:04:52;2.00;2.00;1.00
72509;PMS5003;60532;56.114;40.350;2024-03-08T00:06:53;8.33;4.33;1.00
72509;PMS5003;60532;56.114;40.350;2024-03-08T00:08:54;5.00;5.00;2.00
72509;PMS5003;60532;56.114;40.350;2024-03-08T00:10:55;8.00;6.00;2.00
72509;PMS5003;60532;56.114;40.350;2024-03-08T00:12:55;3.33;2.00;0.00
72509;PMS5003;60532;56.114;40.350;2024-03-08T00:14:58;8.75;6.00;3.00
72509;PMS5003;60532;56.114;40.350;2024-03-08T00:16:59;6.50;4.00;1.00
72509;PMS5003;60532;56.114;40.350;2024-03-08T00:18:59;3.33;3.33;1.00
72509;PMS5003;60532;56.114;40.350;2024-03-08T00:21:00;4.33;4.00;2.00
72509;PMS5003;60532;56.114;40.350;2024-03-08T00:23:01;4.00;4.00;2.00
72509;PMS5003;60532;56.114;40.350;2024-03-08T00:25:05;6.67;6.00;2.00
72509;PMS5003;60532;56.114;40.350;2024-03-08T00:27:06;5.00;3.00;1.00
72509;PMS5003;60532;56.114;40.350;2024-03-08T00:29:07;5.50;5.00;1.00
72509;PMS5003;60532;56.114;40.350;2024-03-08T00:31:21;5.75;5.75;1.00
72509;PMS5003;60532;56.114;40.350;2024-03-08T00:33:22;8.67;4.00;1.00
72509;PMS5003;60532;56.114;40.350;2024-03-08T00:35:22;4.00;4.00;0.67
72509;PMS5003;60532;56.114;40.350;2024-03-08T00:37:24;4.00;4.00;0.75
72509;PMS5003;60532;56.114;40.350;2024-03-08T00:39:27;3.50;1.50;0.25
72509;PMS5003;60532;56.114;40.350;2024-03-08T00:41:28;2.67;2.67;0.00
72509;PMS5003;60532;56.114;40.350;2024-03-08T00:43:29;3.33;3.33;0.67
72509;PMS5003;60532;56.114;40.350;2024-03-08T00:45:30;5.75;4.00;2.00
72509;PMS5003;60532;56.114;40.350;2024-03-08T00:47:31;2.67;2.67;1.00
72509;PMS5003;60532;56.114;40.350;2024-03-08T00:49:32;4.00;4.00;1.00
72509;PMS5003;60532;56.114;40.350;2024-03-08T00:51:33;2.00;2.00;1.00
72509;PMS5003;60532;56.114;40.350;2024-03-08T00:53:33;2.00;2.00;1.00
72509;PMS5003;60532;56.114;40.350;2024-03-08T00:55:34;3.00;2.00;0.67
72509;PMS5003;60532;56.114;40.350;2024-03-08T00:57:35;2.00;2.00;1.00
72509;PMS5003;60532;56.114;40.350;2024-03-08T00:59:37;2.00;2.00;0.33
72509;PMS5003;60532;56.114;40.350;2024-03-08T01:01:38;4.75;4.75;1.00
72509;PMS5003;60532;56.114;40.350;2024-03-08T01:03:40;5.00;2.00;1.00
72509;PMS5003;60532;56.114;40.350;2024-03-08T01:05:41;2.50;2.50;1.00
72509;PMS5003;60532;56.114;40.350;2024-03-08T01:07:43;2.50;2.50;1.00
72509;PMS5003;60532;56.114;40.350;2024-03-08T01:09:46;3.50;1.75;1.00
72509;PMS5003;60532;56.114;40.350;2024-03-08T01:11:47;4.00;2.00;0.00
72509;PMS5003;60532;56.114;40.350;2024-03-08T01:13:48;2.00;2.00;1.00
72509;PMS5003;60532;56.114;40.350;2024-03-08T01:15:49;4.75;2.00;1.00
72509;PMS5003;60532;56.114;40.350;2024-03-08T01:17:50;5.33;2.00;1.00
72509;PMS5003;60532;56.114;40.350;2024-03-08T01:19:51;4.00;4.00;1.00
72509;PMS5003;60532;56.114;40.350;2024-03-08T01:21:52;3.00;3.00;1.00
72509;PMS5003;60532;56.114;40.350;2024-03-08T01:23:56;5.00;5.00;1.00
72509;PMS5003;60532;56.114;40.350;2024-03-08T01:25:56;4.00;4.00;1.00
72509;PMS5003;60532;56.114;40.350;2024-03-08T01:27:57;3.50;3.50;1.00
72509;PMS5003;60532;56.114;40.350;2024-03-08T01:29:58;5.00;2.00;1.00
72509;PMS5003;60532;56.114;40.350;2024-03-08T01:32:00;5.00;4.00;0.50
72509;PMS5003;60532;56.114;40.350;2024-03-08T01:34:02;5.00;4.25;1.00
72509;PMS5003;60532;56.114;40.350;2024-03-08T01:36:02;2.67;2.00;1.00
72509;PMS5003;60532;56.114;40.350;2024-03-08T01:38:03;8.00;3.50;1.00
72509;PMS5003;60532;56.114;40.350;2024-03-08T01:40:05;4.25;4.25;1.00
72509;PMS5003;60532;56.114;40.350;2024-03-08T01:42:09;5.00;3.50;0.00
72509;PMS5003;60532;56.114;40.350;2024-03-08T01:44:13;4.00;2.00;0.75
72509;PMS5003;60532;56.114;40.350;2024-03-08T01:46:18;5.00;4.50;1.00
72509;PMS5003;60532;56.114;40.350;2024-03-08T01:48:19;2.00;2.00;0.00
72509;PMS5003;60532;56.114;40.350;2024-03-08T01:50:24;4.00;4.00;1.00
72509;PMS5003;60532;56.114;40.350;2024-03-08T01:52:25;4.67;4.67;1.00
72509;PMS5003;60532;56.114;40.350;2024-03-08T01:54:26;4.00;4.00;1.00
72509;PMS5003;60532;56.114;40.350;2024-03-08T01:56:28;4.33;4.33;1.00
72509;PMS5003;60532;56.114;40.350;2024-03-08T01:58:29;3.50;3.50;0.75
72509;PMS5003;60532;56.114;40.350;2024-03-08T02:00:30;2.00;2.00;1.00
72509;PMS5003;60532;56.114;40.350;2024-03-08T02:02:32;4.00;2.00;1.00
72509;PMS5003;60532;56.114;40.350;2024-03-08T02:04:34;3.00;1.75;0.00
72509;PMS5003;60532;56.114;40.350;2024-03-08T02:06:36;1.75;1.75;1.00
72509;PMS5003;60532;56.114;40.350;2024-03-08T02:08:38;1.00;1.00;0.00
72509;PMS5003;60532;56.114;40.350;2024-03-08T02:10:39;2.67;2.00;1.00
72509;PMS5003;60532;56.114;40.350;2024-03-08T02:12:41;1.00;1.00;0.25
72509;PMS5003;60532;56.114;40.350;2024-03-08T02:14:42;1.50;1.50;1.00
72509;PMS5003;60532;56.114;40.350;2024-03-08T02:16:44;1.50;1.50;1.00
72509;PMS5003;60532;56.114;40.350;2024-03-08T02:18:45;2.00;2.00;1.00
72509;PMS5003;60532;56.114;40.350;2024-03-08T02:20:47;1.00;1.00;1.00
72509;PMS5003;60532;56.114;40.350;2024-03-08T02:22:48;4.25;2.50;1.00
72509;PMS5003;60532;56.114;40.350;2024-03-08T02:24:49;4.50;1.50;0.50
72509;PMS5003;60532;56.114;40.350;2024-03-08T02:26:50;3.33;1.67;1.00
72509;PMS5003;60532;56.114;40.350;2024-03-08T02:28:51;6.75;3.00;0.50
72509;PMS5003;60532;56.114;40.350;2024-03-08T02:30:52;2.00;0.67;0.00
72509;PMS5003;60532;56.114;40.350;2024-03-08T02:32:56;5.00;2.00;0.75
72509;PMS5003;60532;56.114;40.350;2024-03-08T02:34:58;1.00;1.00;0.75
72509;PMS5003;60532;56.114;40.350;2024-03-08T02:37:00;4.25;2.00;1.00
72509;PMS5003;60532;56.114;40.350;2024-03-08T02:39:03;2.67;2.67;1.00
72509;PMS5003;60532;56.114;40.350;2024-03-08T02:41:06;1.00;1.00;0.00
72509;PMS5003;60532;56.114;40.350;2024-03-08T02:43:06;5.00;2.67;1.00
72509;PMS5003;60532;56.114;40.350;2024-03-08T02:45:07;1.00;1.00;1.00
72509;PMS5003;60532;56.114;40.350;2024-03-08T02:47:10;1.50;1.50;0.75
72509;PMS5003;60532;56.114;40.350;2024-03-08T02:49:11;5.00;3.33;1.00
72509;PMS5003;60532;56.114;40.350;2024-03-08T02:51:12;1.00;1.00;0.75
72509;PMS5003;60532;56.114;40.350;2024-03-08T02:53:14;2.00;2.00;0.50
72509;PMS5003;60532;56.114;40.350;2024-03-08T02:55:14;4.67;4.00;1.00
72509;PMS5003;60532;56.114;40.350;2024-03-08T02:57:18;3.00;1.50;0.25
72509;PMS5003;60532;56.114;40.350;2024-03-08T02:59:19;4.67;1.67;1.00
72509;PMS5003;60532;56.114;40.350;2024-03-08T03:01:19;2.00;2.00;1.00
72509;PMS5003;60532;56.114;40.350;2024-03-08T03:03:20;4.75;4.00;1.00
72509;PMS5003;60532;56.114;40.350;2024-03-08T03:05:24;2.00;2.00;0.50
72509;PMS5003;60532;56.114;40.350;2024-03-08T03:07:25;4.00;2.00;0.00
72509;PMS5003;60532;56.114;40.350;2024-03-08T03:09:28;7.00;2.00;0.50
72509;PMS5003;60532;56.114;40.350;2024-03-08T03:11:28;1.67;1.67;1.00
72509;PMS5003;60532;56.114;40.350;2024-03-08T03:13:29;5.67;2.00;0.33
72509;PMS5003;60532;56.114;40.350;2024-03-08T03:15:30;1.67;1.67;0.00
72509;PMS5003;60532;56.114;40.350;2024-03-08T03:17:31;4.00;1.33;1.00
72509;PMS5003;60532;56.114;40.350;2024-03-08T03:19:31;3.33;1.67;1.00
72509;PMS5003;60532;56.114;40.350;2024-03-08T03:21:32;2.67;2.00;1.00
72509;PMS5003;60532;56.114;40.350;2024-03-08T03:23:36;1.75;1.50;0.00
72509;PMS5003;60532;56.114;40.350;2024-03-08T03:25:37;4.00;4.00;1.00
72509;PMS5003;60532;56.114;40.350;2024-03-08T03:27:41;2.25;1.00;0.00
72509;PMS5003;60532;56.114;40.350;2024-03-08T03:29:42;1.33;1.33;0.33
72509;PMS5003;60532;56.114;40.350;2024-03-08T03:31:46;3.50;1.25;1.00
72509;PMS5003;60532;56.114;40.350;2024-03-08T03:33:47;2.00;2.00;1.00
72509;PMS5003;60532;56.114;40.350;2024-03-08T03:35:48;2.00;2.00;0.00
72509;PMS5003;60532;56.114;40.350;2024-03-08T03:37:49;3.50;2.00;1.00
72509;PMS5003;60532;56.114;40.350;2024-03-08T03:40:22;5.75;1.50;1.00
72509;PMS5003;60532;56.114;40.350;2024-03-08T03:42:25;3.50;1.25;1.00
72509;PMS5003;60532;56.114;40.350;2024-03-08T03:44:27;2.50;1.50;0.50
72509;PMS5003;60532;56.114;40.350;2024-03-08T03:46:28;3.50;1.00;1.00
72509;PMS5003;60532;56.114;40.350;2024-03-08T03:48:29;4.67;4.00;1.67
72509;PMS5003;60532;56.114;40.350;2024-03-08T03:50:29;7.33;4.33;1.00
72509;PMS5003;60532;56.114;40.350;2024-03-08T03:52:30;1.50;1.50;1.00
72509;PMS5003;60532;56.114;40.350;2024-03-08T03:54:32;2.00;1.75;0.50
72509;PMS5003;60532;56.114;40.350;2024-03-08T03:56:33;1.75;1.75;0.00
72509;PMS5003;60532;56.114;40.350;2024-03-08T03:58:34;2.67;2.67;1.00
72509;PMS5003;60532;56.114;40.350;2024-03-08T04:00:34;6.00;2.00;1.00
72509;PMS5003;60532;56.114;40.350;2024-03-08T04:02:39;4.00;2.00;0.25
72509;PMS5003;60532;56.114;40.350;2024-03-08T04:04:41;1.00;1.00;0.75
72509;PMS5003;60532;56.114;40.350;2024-03-08T04:06:42;2.67;1.00;0.00
72509;PMS5003;60532;56.114;40.350;2024-03-08T04:08:44;4.00;2.00;0.00
72509;PMS5003;60532;56.114;40.350;2024-03-08T04:10:45;4.00;1.00;0.00
72509;PMS5003;60532;56.114;40.350;2024-03-08T04:12:45;2.00;2.00;0.67
72509;PMS5003;60532;56.114;40.350;2024-03-08T04:14:46;10.33;5.00;1.00
72509;PMS5003;60532;56.114;40.350;2024-03-08T04:16:47;4.67;2.00;0.67
72509;PMS5003;60532;56.114;40.350;2024-03-08T04:18:48;4.75;4.00;0.25
72509;PMS5003;60532;56.114;40.350;2024-03-08T04:20:49;0.33;0.00;0.00
72509;PMS5003;60532;56.114;40.350;2024-03-08T04:22:50;6.00;1.75;0.00
72509;PMS5003;60532;56.114;40.350;2024-03-08T04:24:52;2.50;2.00;1.00
72509;PMS5003;60532;56.114;40.350;2024-03-08T04:26:53;6.33;5.00;2.00
72509;PMS5003;60532;56.114;40.350;2024-03-08T04:28:55;5.25;4.00;1.75
72509;PMS5003;60532;56.114;40.350;2024-03-08T04:30:56;4.75;3.50;1.75
72509;PMS5003;60532;56.114;40.350;2024-03-08T04:32:57;5.00;5.00;1.75
72509;PMS5003;60532;56.114;40.350;2024-03-08T04:34:58;7.33;4.67;2.00
72509;PMS5003;60532;56.114;40.350;2024-03-08T04:37:02;8.00;7.00;0.75
72509;PMS5003;60532;56.114;40.350;2024-03-08T04:39:05;4.50;4.00;2.00
72509;PMS5003;60532;56.114;40.350;2024-03-08T04:41:06;9.67;5.00;1.67
72509;PMS5003;60532;56.114;40.350;2024-03-08T04:43:07;2.50;2.00;1.00
72509;PMS5003;60532;56.114;40.350;2024-03-08T04:45:09;9.67;8.67;2.00
72509;PMS5003;60532;56.114;40.350;2024-03-08T04:47:11;7.50;5.50;1.00
72509;PMS5003;60532;56.114;40.350;2024-03-08T04:49:12;5.00;5.00;4.00
72509;PMS5003;60532;56.114;40.350;2024-03-08T04:51:13;7.25;5.00;2.00
72509;PMS5003;60532;56.114;40.350;2024-03-08T04:53:14;8.67;5.00;2.00
72509;PMS5003;60532;56.114;40.350;2024-03-08T04:55:15;9.00;5.67;2.00
72509;PMS5003;60532;56.114;40.350;2024-03-08T04:57:15;7.00;5.00;2.00
72509;PMS5003;60532;56.114;40.350;2024-03-08T04:59:18;8.25;5.50;2.00
72509;PMS5003;60532;56.114;40.350;2024-03-08T05:01:19;9.00;5.00;3.50
72509;PMS5003;60532;56.114;40.350;2024-03-08T05:03:20;9.75;5.75;2.50
72509;PMS5003;60532;56.114;40.350;2024-03-08T05:05:21;8.00;8.00;4.00
72509;PMS5003;60532;56.114;40.350;2024-03-08T05:07:23;7.25;6.25;3.00
72509;PMS5003;60532;56.114;40.350;2024-03-08T05:09:24;6.00;4.00;1.00
72509;PMS5003;60532;56.114;40.350;2024-03-08T05:11:25;8.67;4.33;1.67
72509;PMS5003;60532;56.114;40.350;2024-03-08T05:13:25;8.67;8.00;2.00
72509;PMS5003;60532;56.114;40.350;2024-03-08T05:15:27;10.00;5.50;2.00
72509;PMS5003;60532;56.114;40.350;2024-03-08T05:17:28;7.33;5.67;2.00
72509;PMS5003;60532;56.114;40.350;2024-03-08T05:19:30;10.50;8.00;3.50
72509;PMS5003;60532;56.114;40.350;2024-03-08T05:21:31;8.67;6.00;3.33
72509;PMS5003;60532;56.114;40.350;2024-03-08T05:23:32;8.33;7.33;2.00
72509;PMS5003;60532;56.114;40.350;2024-03-08T05:25:33;4.00;4.00;2.00
72509;PMS5003;60532;56.114;40.350;2024-03-08T05:27:34;7.33;6.33;4.33
72509;PMS5003;60532;56.114;40.350;2024-03-08T05:29:34;10.00;8.00;4.00
72509;PMS5003;60532;56.114;40.350;2024-03-08T05:31:48;11.00;11.00;4.33
72509;PMS5003;60532;56.114;40.350;2024-03-08T05:33:49;11.50;9.00;4.50
72509;PMS5003;60532;56.114;40.350;2024-03-08T05:35:50;8.25;6.25;2.00
72509;PMS5003;60532;56.114;40.350;2024-03-08T05:37:52;10.25;8.50;5.25
72509;PMS5003;60532;56.114;40.350;2024-03-08T05:39:53;17.67;11.67;4.67
72509;PMS5003;60532;56.114;40.350;2024-03-08T05:41:54;10.75;10.75;5.00
72509;PMS5003;60532;56.114;40.350;2024-03-08T05:43:55;7.75;7.00;4.00
72509;PMS5003;60532;56.114;40.350;2024-03-08T05:45:56;11.00;9.67;6.00
72509;PMS5003;60532;56.114;40.350;2024-03-08T05:47:57;11.33;11.33;6.33
72509;PMS5003;60532;56.114;40.350;2024-03-08T05:49:58;12.67;9.67;4.33
72509;PMS5003;60532;56.114;40.350;2024-03-08T05:51:59;17.25;9.50;5.00
72509;PMS5003;60532;56.114;40.350;2024-03-08T05:54:01;9.25;8.50;2.50
72509;PMS5003;60532;56.114;40.350;2024-03-08T05:56:03;11.75;10.50;5.00
72509;PMS5003;60532;56.114;40.350;2024-03-08T05:58:04;14.25;11.25;7.00
72509;PMS5003;60532;56.114;40.350;2024-03-08T06:00:05;12.00;8.00;4.67
72509;PMS5003;60532;56.114;40.350;2024-03-08T06:02:06;20.00;12.75;5.25
72509;PMS5003;60532;56.114;40.350;2024-03-08T06:04:06;11.67;10.00;5.00
72509;PMS5003;60532;56.114;40.350;2024-03-08T06:06:07;12.50;8.50;4.75
72509;PMS5003;60532;56.114;40.350;2024-03-08T06:08:08;9.33;8.33;5.00
72509;PMS5003;60532;56.114;40.350;2024-03-08T06:10:09;11.33;8.33;4.67
72509;PMS5003;60532;56.114;40.350;2024-03-08T06:12:10;16.75;13.50;6.00
72509;PMS5003;60532;56.114;40.350;2024-03-08T06:14:11;14.50;11.50;4.75
72509;PMS5003;60532;56.114;40.350;2024-03-08T06:16:12;8.33;8.33;4.33
72509;PMS5003;60532;56.114;40.350;2024-03-08T06:18:13;15.33;9.00;6.33
72509;PMS5003;60532;56.114;40.350;2024-03-08T06:20:15;14.50;9.00;5.00
72509;PMS5003;60532;56.114;40.350;2024-03-08T06:22:16;8.67;8.00;4.00
72509;PMS5003;60532;56.114;40.350;2024-03-08T06:24:17;11.00;9.00;4.67
72509;PMS5003;60532;56.114;40.350;2024-03-08T06:26:18;6.25;5.50;0.25
72509;PMS5003;60532;56.114;40.350;2024-03-08T06:28:19;22.00;13.25;4.50
72509;PMS5003;60532;56.114;40.350;2024-03-08T06:30:19;12.67;8.67;4.67
72509;PMS5003;60532;56.114;40.350;2024-03-08T06:32:21;11.00;8.00;2.00
72509;PMS5003;60532;56.114;40.350;2024-03-08T06:34:23;10.75;10.00;5.00
72509;PMS5003;60532;56.114;40.350;2024-03-08T06:36:23;16.00;10.33;5.00
72509;PMS5003;60532;56.114;40.350;2024-03-08T06:38:24;17.33;11.00;4.67
72509;PMS5003;60532;56.114;40.350;2024-03-08T06:40:25;10.00;8.00;4.00
72509;PMS5003;60532;56.114;40.350;2024-03-08T06:42:26;15.75;11.00;5.25
72509;PMS5003;60532;56.114;40.350;2024-03-08T06:44:28;11.50;11.50;6.00
72509;PMS5003;60532;56.114;40.350;2024-03-08T06:46:29;16.33;11.00;5.00
72509;PMS5003;60532;56.114;40.350;2024-03-08T06:48:29;16.67;11.33;5.00
72509;PMS5003;60532;56.114;40.350;2024-03-08T06:50:30;14.33;13.33;6.33
72509;PMS5003;60532;56.114;40.350;2024-03-08T06:52:32;12.25;10.00;4.00
72509;PMS5003;60532;56.114;40.350;2024-03-08T06:54:33;13.50;8.75;5.00
72509;PMS5003;60532;56.114;40.350;2024-03-08T06:56:37;16.67;13.00;5.67
72509;PMS5003;60532;56.114;40.350;2024-03-08T06:58:38;16.25;10.25;5.00
72509;PMS5003;60532;56.114;40.350;2024-03-08T07:00:39;18.00;15.75;7.00
72509;PMS5003;60532;56.114;40.350;2024-03-08T07:02:40;9.00;9.00;4.00
72509;PMS5003;60532;56.114;40.350;2024-03-08T07:04:41;15.75;11.75;5.50
72509;PMS5003;60532;56.114;40.350;2024-03-08T07:06:41;8.67;8.67;4.00
72509;PMS5003;60532;56.114;40.350;2024-03-08T07:08:42;15.33;9.67;5.00
72509;PMS5003;60532;56.114;40.350;2024-03-08T07:10:43;9.75;7.50;5.00
72509;PMS5003;60532;56.114;40.350;2024-03-08T07:12:45;15.75;12.75;6.50
72509;PMS5003;60532;56.114;40.350;2024-03-08T07:14:47;16.50;12.25;4.50
72509;PMS5003;60532;56.114;40.350;2024-03-08T07:16:48;12.00;9.67;5.00
72509;PMS5003;60532;56.114;40.350;2024-03-08T07:18:48;20.25;11.50;6.00
72509;PMS5003;60532;56.114;40.350;2024-03-08T07:20:52;16.00;11.50;6.00
72509;PMS5003;60532;56.114;40.350;2024-03-08T07:22:54;16.00;13.25;5.50
72509;PMS5003;60532;56.114;40.350;2024-03-08T07:24:55;14.00;9.00;4.50
72509;PMS5003;60532;56.114;40.350;2024-03-08T07:27:19;13.25;9.50;4.00
72509;PMS5003;60532;56.114;40.350;2024-03-08T07:29:20;21.67;12.67;5.00
72509;PMS5003;60532;56.114;40.350;2024-03-08T07:31:21;14.25;12.00;6.50
72509;PMS5003;60532;56.114;40.350;2024-03-08T07:33:38;16.25;11.75;5.00
72509;PMS5003;60532;56.114;40.350;2024-03-08T07:35:39;11.33;11.00;5.00
72509;PMS5003;60532;56.114;40.350;2024-03-08T07:37:40;20.00;13.50;5.00
72509;PMS5003;60532;56.114;40.350;2024-03-08T07:39:41;9.00;9.00;5.00
72509;PMS5003;60532;56.114;40.350;2024-03-08T07:41:42;13.00;9.00;4.00
72509;PMS5003;60532;56.114;40.350;2024-03-08T07:43:43;8.33;8.33;3.33
72509;PMS5003;60532;56.114;40.350;2024-03-08T07:45:43;17.67;9.67;4.00
72509;PMS5003;60532;56.114;40.350;2024-03-08T07:47:44;15.00;10.33;5.00
72509;PMS5003;60532;56.114;40.350;2024-03-08T07:49:46;12.00;12.00;6.00
72509;PMS5003;60532;56.114;40.350;2024-03-08T07:51:47;16.00;12.75;5.00
72509;PMS5003;60532;56.114;40.350;2024-03-08T07:53:49;15.25;13.00;5.50
72509;PMS5003;60532;56.114;40.350;2024-03-08T07:55:50;22.25;16.75;6.50
72509;PMS5003;60532;56.114;40.350;2024-03-08T07:57:51;15.25;12.75;5.00
72509;PMS5003;60532;56.114;40.350;2024-03-08T07:59:52;14.75;12.75;5.75
72509;PMS5003;60532;56.114;40.350;2024-03-08T08:01:53;13.67;11.33;5.33
72509;PMS5003;60532;56.114;40.350;2024-03-08T08:03:54;18.00;13.67;6.00
72509;PMS5003;60532;56.114;40.350;2024-03-08T08:05:55;15.00;13.00;4.67
72509;PMS5003;60532;56.114;40.350;2024-03-08T08:07:56;21.67;14.00;8.00
72509;PMS5003;60532;56.114;40.350;2024-03-08T08:09:56;25.00;17.33;8.67
72509;PMS5003;60532;56.114;40.350;2024-03-08T08:11:57;18.33;13.67;5.67
72509;PMS5003;60532;56.114;40.350;2024-03-08T08:13:58;17.00;13.00;8.00
72509;PMS5003;60532;56.114;40.350;2024-03-08T08:15:59;20.00;18.25;9.00
72509;PMS5003;60532;56.114;40.350;2024-03-08T08:18:00;26.00;18.67;9.00
72509;PMS5003;60532;56.114;40.350;2024-03-08T08:20:01;23.67;22.33;11.00
72509;PMS5003;60532;56.114;40.350;2024-03-08T08:22:05;22.25;19.00;12.00
72509;PMS5003;60532;56.114;40.350;2024-03-08T08:24:09;27.50;21.00;11.25
72509;PMS5003;60532;56.114;40.350;2024-03-08T08:26:11;31.25;24.75;11.25
72509;PMS5003;60532;56.114;40.350;2024-03-08T08:28:12;25.50;20.50;11.25
72509;PMS5003;60532;56.114;40.350;2024-03-08T08:30:13;26.00;18.75;10.50
72509;PMS5003;60532;56.114;40.350;2024-03-08T08:32:14;34.75;26.75;15.25
72509;PMS5003;60532;56.114;40.350;2024-03-08T08:34:15;33.33;24.67;11.33
72509;PMS5003;60532;56.114;40.350;2024-03-08T08:36:16;31.33;26.33;15.33
72509;PMS5003;60532;56.114;40.350;2024-03-08T08:38:16;32.50;26.00;16.00
72509;PMS5003;60532;56.114;40.350;2024-03-08T08:40:18;43.25;31.50;16.50
72509;PMS5003;60532;56.114;40.350;2024-03-08T08:42:19;38.75;31.50;16.25
72509;PMS5003;60532;56.114;40.350;2024-03-08T08:44:20;42.33;31.00;18.33
72509;PMS5003;60532;56.114;40.350;2024-03-08T08:46:21;36.00;31.33;16.33
72509;PMS5003;60532;56.114;40.350;2024-03-08T08:48:22;40.00;34.00;16.00
72509;PMS5003;60532;56.114;40.350;2024-03-08T08:50:23;42.33;32.00;16.67
72509;PMS5003;60532;56.114;40.350;2024-03-08T08:52:23;43.25;37.50;22.00
72509;PMS5003;60532;56.114;40.350;2024-03-08T08:54:24;49.25;38.00;21.25
72509;PMS5003;60532;56.114;40.350;2024-03-08T08:56:25;42.25;35.75;20.75
72509;PMS5003;60532;56.114;40.350;2024-03-08T08:58:26;40.75;31.25;19.25
72509;PMS5003;60532;56.114;40.350;2024-03-08T09:00:28;34.25;33.25;19.50
72509;PMS5003;60532;56.114;40.350;2024-03-08T09:02:31;45.25;38.50;20.50
72509;PMS5003;60532;56.114;40.350;2024-03-08T09:04:32;43.00;32.33;19.33
72509;PMS5003;60532;56.114;40.350;2024-03-08T09:06:32;42.25;39.00;22.00
72509;PMS5003;60532;56.114;40.350;2024-03-08T09:08:33;50.33;40.33;22.33
72509;PMS5003;60532;56.114;40.350;2024-03-08T09:10:35;43.75;38.75;22.50
72509;PMS5003;60532;56.114;40.350;2024-03-08T09:12:35;47.50;40.75;24.00
72509;PMS5003;60532;56.114;40.350;2024-03-08T09:14:36;40.00;34.67;20.00
72509;PMS5003;60532;56.114;40.350;2024-03-08T09:16:37;35.67;28.33;19.67
72509;PMS5003;60532;56.114;40.350;2024-03-08T09:18:38;38.67;35.67;20.00
72509;PMS5003;60532;56.114;40.350;2024-03-08T09:20:38;43.00;35.33;20.33
72509;PMS5003;60532;56.114;40.350;2024-03-08T09:22:44;42.00;38.00;20.50
72509;PMS5003;60532;56.114;40.350;2024-03-08T09:24:45;31.00;28.00;18.50
72509;PMS5003;60532;56.114;40.350;2024-03-08T09:26:46;39.00;29.00;19.00
72509;PMS5003;60532;56.114;40.350;2024-03-08T09:28:47;41.67;32.00;16.00
72509;PMS5003;60532;56.114;40.350;2024-03-08T09:30:47;39.67;36.00;20.00
72509;PMS5003;60532;56.114;40.350;2024-03-08T09:32:48;42.33;34.00;21.33
72509;PMS5003;60532;56.114;40.350;2024-03-08T09:34:51;38.00;34.25;18.75
72509;PMS5003;60532;56.114;40.350;2024-03-08T09:36:52;44.00;36.67;22.33
72509;PMS5003;60532;56.114;40.350;2024-03-08T09:38:53;44.67;33.33;18.33
72509;PMS5003;60532;56.114;40.350;2024-03-08T09:40:54;41.00;34.33;20.00
72509;PMS5003;60532;56.114;40.350;2024-03-08T09:42:57;37.25;33.50;19.00
72509;PMS5003;60532;56.114;40.350;2024-03-08T09:44:58;40.00;33.67;17.67
72509;PMS5003;60532;56.114;40.350;2024-03-08T09:46:59;40.50;36.25;18.25
72509;PMS5003;60532;56.114;40.350;2024-03-08T09:49:00;35.25;33.25;18.25
72509;PMS5003;60532;56.114;40.350;2024-03-08T09:51:02;43.25;29.00;16.00
72509;PMS5003;60532;56.114;40.350;2024-03-08T09:53:03;34.25;32.25;18.00
72509;PMS5003;60532;56.114;40.350;2024-03-08T09:55:07;34.25;31.00;17.50
72509;PMS5003;60532;56.114;40.350;2024-03-08T09:57:11;32.25;29.00;16.00
72509;PMS5003;60532;56.114;40.350;2024-03-08T09:59:12;38.25;30.75;14.50
72509;PMS5003;60532;56.114;40.350;2024-03-08T10:01:28;34.75;31.75;16.00
72509;PMS5003;60532;56.114;40.350;2024-03-08T10:03:29;43.33;32.67;18.67
72509;PMS5003;60532;56.114;40.350;2024-03-08T10:05:30;34.25;29.50;15.75
72509;PMS5003;60532;56.114;40.350;2024-03-08T10:07:33;34.00;29.25;13.75
72509;PMS5003;60532;56.114;40.350;2024-03-08T10:09:34;36.00;30.75;17.00
72509;PMS5003;60532;56.114;40.350;2024-03-08T10:11:34;35.50;28.00;16.50
72509;PMS5003;60532;56.114;40.350;2024-03-08T10:13:35;30.67;26.00;12.00
72509;PMS5003;60532;56.114;40.350;2024-03-08T10:15:36;32.75;26.25;16.00
72509;PMS5003;60532;56.114;40.350;2024-03-08T10:17:38;35.25;27.75;16.00
72509;PMS5003;60532;56.114;40.350;2024-03-08T10:19:48;33.75;31.00;15.00
72509;PMS5003;60532;56.114;40.350;2024-03-08T10:21:50;33.75;27.00;16.00
72509;PMS5003;60532;56.114;40.350;2024-03-08T10:23:53;36.75;26.00;11.75
72509;PMS5003;60532;56.114;40.350;2024-03-08T10:25:54;30.67;28.33;15.33
72509;PMS5003;60532;56.114;40.350;2024-03-08T10:27:58;30.00;25.00;14.00
72509;PMS5003;60532;56.114;40.350;2024-03-08T10:29:59;30.25;26.00;15.25
72509;PMS5003;60532;56.114;40.350;2024-03-08T10:32:00;33.67;28.00;16.33
72509;PMS5003;60532;56.114;40.350;2024-03-08T10:34:02;25.50;24.75;13.50
72509;PMS5003;60532;56.114;40.350;2024-03-08T10:36:03;23.50;18.50;12.00
72509;PMS5003;60532;56.114;40.350;2024-03-08T10:38:04;31.50;26.75;16.50
72509;PMS5003;60532;56.114;40.350;2024-03-08T10:40:08;26.00;21.00;12.50
72509;PMS5003;60532;56.114;40.350;2024-03-08T10:42:16;25.00;23.25;13.50
72509;PMS5003;60532;56.114;40.350;2024-03-08T10:44:24;31.50;26.00;13.25
72509;PMS5003;60532;56.114;40.350;2024-03-08T10:46:30;26.75;24.75;14.00
72509;PMS5003;60532;56.114;40.350;2024-03-08T10:48:39;25.80;21.80;9.00
72509;PMS5003;60532;56.114;40.350;2024-03-08T10:50:43;28.00;22.00;12.00
72509;PMS5003;60532;56.114;40.350;2024-03-08T10:52:51;21.75;18.75;10.25
72509;PMS5003;60532;56.114;40.350;2024-03-08T10:54:52;22.50;21.50;11.00
72509;PMS5003;60532;56.114;40.350;2024-03-08T10:56:53;24.75;22.25;11.00
72509;PMS5003;60532;56.114;40.350;2024-03-08T10:58:55;22.25;19.25;10.00
72509;PMS5003;60532;56.114;40.350;2024-03-08T11:00:56;21.00;19.75;10.75
72509;PMS5003;60532;56.114;40.350;2024-03-08T11:02:57;18.50;16.75;10.75
72509;PMS5003;60532;56.114;40.350;2024-03-08T11:04:58;22.20;21.00;11.20
72509;PMS5003;60532;56.114;40.350;2024-03-08T11:07:00;18.80;15.60;10.00
72509;PMS5003;60532;56.114;40.350;2024-03-08T11:09:08;28.50;20.50;12.25
72509;PMS5003;60532;56.114;40.350;2024-03-08T11:13:40;21.40;19.20;9.00
72509;PMS5003;60532;56.114;40.350;2024-03-08T11:15:41;19.00;14.25;7.50
72509;PMS5003;60532;56.114;40.350;2024-03-08T11:17:50;25.00;17.25;9.00
72509;PMS5003;60532;56.114;40.350;2024-03-08T11:19:51;15.75;13.75;9.25
72509;PMS5003;60532;56.114;40.350;2024-03-08T11:21:59;24.75;18.50;9.25
72509;PMS5003;60532;56.114;40.350;2024-03-08T11:24:01;18.50;15.25;7.25
72509;PMS5003;60532;56.114;40.350;2024-03-08T11:26:02;23.00;19.50;9.00
72509;PMS5003;60532;56.114;40.350;2024-03-08T11:28:09;23.25;21.50;12.25
72509;PMS5003;60532;56.114;40.350;2024-03-08T11:30:11;21.20;17.80;10.80
72509;PMS5003;60532;56.114;40.350;2024-03-08T11:32:14;26.50;20.00;9.00
72509;PMS5003;60532;56.114;40.350;2024-03-08T11:34:15;20.80;17.40;9.00